sensor_id;sensor_type;location;lat;lon;timestamp;pressure;altitude;pressure_sealevel;temperature;humidity
5877;BME280;2964;42.144;24.730;2023-02-21T00:02:28;143892.94;;;9.26;44.72
5877;BME280;2964;42.144;24.730;2023-02-21T00:05:12;143778.75;;;8.79;46.28
5877;BME280;2964;42.144;24.730;2023-02-21T00:07:58;143795.06;;;8.86;46.07
5877;BME280;2964;42.144;24.730;2023-02-21T00:10:42;143773.72;;;8.77;46.49
5877;BME280;2964;42.144;24.730;2023-02-21T00:13:26;143792.53;;;8.85;46.68
5877;BME280;2964;42.144;24.730;2023-02-21T00:16:14;143801.31;;;8.88;45.73
5877;BME280;2964;42.144;24.730;2023-02-21T00:18:58;143702.25;;;8.48;45.48
5877;BME280;2964;42.144;24.730;2023-02-21T00:21:42;143825.19;;;8.98;45.12
5877;BME280;2964;42.144;24.730;2023-02-21T00:24:28;143902.97;;;9.30;44.28
5877;BME280;2964;42.144;24.730;2023-02-21T00:27:12;143895.41;;;9.27;44.29
5877;BME280;2964;42.144;24.730;2023-02-21T00:29:56;143866.56;;;9.15;44.69
5877;BME280;2964;42.144;24.730;2023-02-21T00:32:40;143851.50;;;9.09;44.65
5877;BME280;2964;42.144;24.730;2023-02-21T00:35:24;143850.25;;;9.08;44.69
5877;BME280;2964;42.144;24.730;2023-02-21T00:38:09;143897.94;;;9.28;43.55
5877;BME280;2964;42.144;24.730;2023-02-21T00:40:55;143874.06;;;9.18;44.18
5877;BME280;2964;42.144;24.730;2023-02-21T00:43:39;143875.38;;;9.19;44.30
5877;BME280;2964;42.144;24.730;2023-02-21T00:46:23;143826.44;;;8.99;44.16
5877;BME280;2964;42.144;24.730;2023-02-21T00:49:08;143872.84;;;9.18;43.88
5877;BME280;2964;42.144;24.730;2023-02-21T00:51:52;143935.56;;;9.43;43.66
5877;BME280;2964;42.144;24.730;2023-02-21T00:54:37;143872.84;;;9.18;44.00
5877;BME280;2964;42.144;24.730;2023-02-21T00:57:22;143915.53;;;9.35;43.65
5877;BME280;2964;42.144;24.730;2023-02-21T01:00:12;143948.13;;;9.49;43.12
5877;BME280;2964;42.144;24.730;2023-02-21T01:02:57;143978.28;;;9.61;42.93
5877;BME280;2964;42.144;24.730;2023-02-21T01:05:41;143964.44;;;9.55;42.41
5877;BME280;2964;42.144;24.730;2023-02-21T01:08:25;143938.09;;;9.44;43.04
5877;BME280;2964;42.144;24.730;2023-02-21T01:11:13;143945.59;;;9.47;42.77
5877;BME280;2964;42.144;24.730;2023-02-21T01:13:59;143890.41;;;9.25;42.96
5877;BME280;2964;42.144;24.730;2023-02-21T01:16:43;143832.69;;;9.01;43.45
5877;BME280;2964;42.144;24.730;2023-02-21T01:19:27;144000.88;;;9.70;42.05
5877;BME280;2964;42.144;24.730;2023-02-21T01:22:11;143993.31;;;9.67;42.12
5877;BME280;2964;42.144;24.730;2023-02-21T01:24:55;144022.16;;;9.79;41.94
5877;BME280;2964;42.144;24.730;2023-02-21T01:27:39;143987.00;;;9.64;42.08
5877;BME280;2964;42.144;24.730;2023-02-21T01:30:25;143992.06;;;9.66;42.16
5877;BME280;2964;42.144;24.730;2023-02-21T01:33:09;144078.69;;;10.02;41.06
5877;BME280;2964;42.144;24.730;2023-02-21T01:35:54;144027.19;;;9.81;41.58
5877;BME280;2964;42.144;24.730;2023-02-21T01:38:38;144061.09;;;9.95;41.36
5877;BME280;2964;42.144;24.730;2023-02-21T01:41:22;144007.13;;;9.73;41.94
5877;BME280;2964;42.144;24.730;2023-02-21T01:44:31;143933.03;;;9.42;42.89
5877;BME280;2964;42.144;24.730;2023-02-21T01:47:18;143876.59;;;9.19;43.41
5877;BME280;2964;42.144;24.730;2023-02-21T01:50:07;143840.22;;;9.04;43.17
5877;BME280;2964;42.144;24.730;2023-02-21T01:52:51;143806.34;;;8.91;44.22
5877;BME280;2964;42.144;24.730;2023-02-21T01:55:38;143836.47;;;9.03;43.48
5877;BME280;2964;42.144;24.730;2023-02-21T01:58:23;143960.69;;;9.54;43.09
5877;BME280;2964;42.144;24.730;2023-02-21T02:01:14;143905.44;;;9.31;43.22
5877;BME280;2964;42.144;24.730;2023-02-21T02:04:01;143840.22;;;9.04;43.56
5877;BME280;2964;42.144;24.730;2023-02-21T02:06:46;143913.00;;;9.34;43.37
5877;BME280;2964;42.144;24.730;2023-02-21T02:09:30;143849.00;;;9.08;44.03
5877;BME280;2964;42.144;24.730;2023-02-21T02:12:32;143902.97;;;9.30;43.80
5877;BME280;2964;42.144;24.730;2023-02-21T02:15:22;143822.66;;;8.97;44.38
5877;BME280;2964;42.144;24.730;2023-02-21T02:30:22;143737.38;;;8.62;45.74
5877;BME280;2964;42.144;24.730;2023-02-21T02:33:14;143712.31;;;8.52;45.17
5877;BME280;2964;42.144;24.730;2023-02-21T02:35:50;143717.31;;;8.54;46.32
5877;BME280;2964;42.144;24.730;2023-02-21T02:38:23;143717.31;;;8.54;45.72
5877;BME280;2964;42.144;24.730;2023-02-21T02:40:58;143694.75;;;8.45;46.34
5877;BME280;2964;42.144;24.730;2023-02-21T02:43:30;143667.06;;;8.34;45.11
5877;BME280;2964;42.144;24.730;2023-02-21T02:46:01;143792.53;;;8.85;44.62
5877;BME280;2964;42.144;24.730;2023-02-21T02:48:32;143719.81;;;8.55;44.96
5877;BME280;2964;42.144;24.730;2023-02-21T02:51:02;143746.16;;;8.66;45.21
5877;BME280;2964;42.144;24.730;2023-02-21T02:53:31;143785.03;;;8.82;44.90
5877;BME280;2964;42.144;24.730;2023-02-21T02:56:00;143708.53;;;8.50;44.76
5877;BME280;2964;42.144;24.730;2023-02-21T02:58:30;143781.28;;;8.80;44.67
5877;BME280;2964;42.144;24.730;2023-02-21T03:01:07;143805.09;;;8.90;44.75
5877;BME280;2964;42.144;24.730;2023-02-21T03:03:45;143746.16;;;8.66;45.14
5877;BME280;2964;42.144;24.730;2023-02-21T03:06:27;143753.69;;;8.69;45.43
5877;BME280;2964;42.144;24.730;2023-02-21T03:09:02;143757.47;;;8.71;45.62
5877;BME280;2964;42.144;24.730;2023-02-21T03:11:30;143737.38;;;8.62;45.72
5877;BME280;2964;42.144;24.730;2023-02-21T03:14:02;143797.56;;;8.87;45.12
5877;BME280;2964;42.144;24.730;2023-02-21T03:16:37;143782.50;;;8.81;45.41
5877;BME280;2964;42.144;24.730;2023-02-21T03:19:09;143747.38;;;8.66;44.79
5877;BME280;2964;42.144;24.730;2023-02-21T03:21:41;143787.53;;;8.83;44.71
5877;BME280;2964;42.144;24.730;2023-02-21T03:24:10;143767.47;;;8.75;45.43
5877;BME280;2964;42.144;24.730;2023-02-21T03:26:41;143820.13;;;8.96;45.08
5877;BME280;2964;42.144;24.730;2023-02-21T03:29:10;143772.50;;;8.77;45.58
5877;BME280;2964;42.144;24.730;2023-02-21T03:31:43;143808.88;;;8.92;44.86
5877;BME280;2964;42.144;24.730;2023-02-21T03:34:11;143850.25;;;9.08;44.10
5877;BME280;2964;42.144;24.730;2023-02-21T03:36:39;143845.25;;;9.06;44.13
5877;BME280;2964;42.144;24.730;2023-02-21T03:39:06;143816.41;;;8.95;44.27
5877;BME280;2964;42.144;24.730;2023-02-21T03:41:33;143925.53;;;9.39;43.56
5877;BME280;2964;42.144;24.730;2023-02-21T03:44:00;143901.72;;;9.30;43.51
5877;BME280;2964;42.144;24.730;2023-02-21T03:46:26;143887.88;;;9.24;43.84
5877;BME280;2964;42.144;24.730;2023-02-21T03:48:53;143901.72;;;9.30;44.11
5877;BME280;2964;42.144;24.730;2023-02-21T03:51:20;143865.28;;;9.15;44.00
5877;BME280;2964;42.144;24.730;2023-02-21T03:53:48;143890.41;;;9.25;43.84
5877;BME280;2964;42.144;24.730;2023-02-21T03:56:15;143896.66;;;9.27;43.79
5877;BME280;2964;42.144;24.730;2023-02-21T03:58:41;143905.44;;;9.31;43.43
5877;BME280;2964;42.144;24.730;2023-02-21T04:01:08;143892.94;;;9.26;43.31
5877;BME280;2964;42.144;24.730;2023-02-21T04:03:35;143881.63;;;9.21;43.21
5877;BME280;2964;42.144;24.730;2023-02-21T04:06:01;143875.38;;;9.19;43.56
5877;BME280;2964;42.144;24.730;2023-02-21T04:08:28;143877.84;;;9.20;44.02
5877;BME280;2964;42.144;24.730;2023-02-21T04:10:57;143877.84;;;9.20;44.11
5877;BME280;2964;42.144;24.730;2023-02-21T04:13:23;143881.63;;;9.21;43.98
5877;BME280;2964;42.144;24.730;2023-02-21T04:15:50;143905.44;;;9.31;43.78
5877;BME280;2964;42.144;24.730;2023-02-21T04:18:17;143920.53;;;9.37;43.67
5877;BME280;2964;42.144;24.730;2023-02-21T04:20:43;143960.69;;;9.54;43.38
5877;BME280;2964;42.144;24.730;2023-02-21T04:23:15;143935.56;;;9.43;43.68
5877;BME280;2964;42.144;24.730;2023-02-21T04:25:42;143938.09;;;9.44;43.40
5877;BME280;2964;42.144;24.730;2023-02-21T04:28:10;143913.00;;;9.34;43.73
5877;BME280;2964;42.144;24.730;2023-02-21T04:30:36;143936.81;;;9.44;43.35
5877;BME280;2964;42.144;24.730;2023-02-21T04:33:03;143928.03;;;9.40;43.62
5877;BME280;2964;42.144;24.730;2023-02-21T04:35:30;143880.38;;;9.21;43.95
5877;BME280;2964;42.144;24.730;2023-02-21T04:37:57;143933.03;;;9.42;43.56
5877;BME280;2964;42.144;24.730;2023-02-21T04:40:23;144030.97;;;9.82;42.37
5877;BME280;2964;42.144;24.730;2023-02-21T04:42:50;143948.13;;;9.49;43.06
5877;BME280;2964;42.144;24.730;2023-02-21T04:45:18;143923.00;;;9.38;43.02
5877;BME280;2964;42.144;24.730;2023-02-21T04:47:45;143971.97;;;9.58;42.82
5877;BME280;2964;42.144;24.730;2023-02-21T04:50:11;143955.69;;;9.52;43.10
5877;BME280;2964;42.144;24.730;2023-02-21T04:52:38;143971.97;;;9.58;42.25
5877;BME280;2964;42.144;24.730;2023-02-21T04:55:06;143958.16;;;9.53;42.44
5877;BME280;2964;42.144;24.730;2023-02-21T04:57:33;143975.75;;;9.60;42.44
5877;BME280;2964;42.144;24.730;2023-02-21T05:00:00;144018.41;;;9.77;41.96
5877;BME280;2964;42.144;24.730;2023-02-21T05:02:28;144033.50;;;9.83;41.48
5877;BME280;2964;42.144;24.730;2023-02-21T05:04:54;144093.75;;;10.08;40.66
5877;BME280;2964;42.144;24.730;2023-02-21T05:07:22;144038.50;;;9.85;41.93
5877;BME280;2964;42.144;24.730;2023-02-21T05:09:48;144096.28;;;10.09;40.95
5877;BME280;2964;42.144;24.730;2023-02-21T05:12:15;144091.25;;;10.07;41.06
5877;BME280;2964;42.144;24.730;2023-02-21T05:14:42;143994.56;;;9.68;42.14
5877;BME280;2964;42.144;24.730;2023-02-21T05:17:09;143930.56;;;9.41;42.46
5877;BME280;2964;42.144;24.730;2023-02-21T05:19:37;143960.69;;;9.54;42.54
5877;BME280;2964;42.144;24.730;2023-02-21T05:22:04;143960.69;;;9.54;42.47
5877;BME280;2964;42.144;24.730;2023-02-21T05:24:32;143928.03;;;9.40;43.02
5877;BME280;2964;42.144;24.730;2023-02-21T05:27:00;143948.13;;;9.49;42.94
5877;BME280;2964;42.144;24.730;2023-02-21T05:29:26;143811.34;;;8.93;43.22
5877;BME280;2964;42.144;24.730;2023-02-21T05:31:53;143905.44;;;9.31;43.18
5877;BME280;2964;42.144;24.730;2023-02-21T05:34:20;143875.38;;;9.19;43.11
5877;BME280;2964;42.144;24.730;2023-02-21T05:36:48;143891.66;;;9.25;43.22
5877;BME280;2964;42.144;24.730;2023-02-21T05:39:15;143877.84;;;9.20;43.93
5877;BME280;2964;42.144;24.730;2023-02-21T05:41:46;143918.00;;;9.36;43.72
5877;BME280;2964;42.144;24.730;2023-02-21T05:44:13;143862.81;;;9.14;43.86
5877;BME280;2964;42.144;24.730;2023-02-21T05:46:40;143910.47;;;9.33;43.43
5877;BME280;2964;42.144;24.730;2023-02-21T05:49:07;143884.16;;;9.22;43.54
5877;BME280;2964;42.144;24.730;2023-02-21T05:51:35;143910.47;;;9.33;44.12
5877;BME280;2964;42.144;24.730;2023-02-21T05:54:06;143902.97;;;9.30;43.18
5877;BME280;2964;42.144;24.730;2023-02-21T05:56:37;143895.41;;;9.27;43.65
5877;BME280;2964;42.144;24.730;2023-02-21T05:59:04;143943.13;;;9.46;43.07
5877;BME280;2964;42.144;24.730;2023-02-21T06:01:31;144023.47;;;9.79;42.72
5877;BME280;2964;42.144;24.730;2023-02-21T06:03:58;144017.16;;;9.77;42.53
5877;BME280;2964;42.144;24.730;2023-02-21T06:06:25;144091.25;;;10.07;41.67
5877;BME280;2964;42.144;24.730;2023-02-21T06:08:51;144076.16;;;10.01;42.08
5877;BME280;2964;42.144;24.730;2023-02-21T06:11:23;144161.59;;;10.36;41.74
5877;BME280;2964;42.144;24.730;2023-02-21T06:13:52;144174.16;;;10.41;41.57
5877;BME280;2964;42.144;24.730;2023-02-21T06:16:19;144180.41;;;10.43;41.34
5877;BME280;2964;42.144;24.730;2023-02-21T06:18:49;144214.34;;;10.57;41.13
5877;BME280;2964;42.144;24.730;2023-02-21T06:21:15;144267.13;;;10.79;40.94
5877;BME280;2964;42.144;24.730;2023-02-21T06:23:42;144294.75;;;10.90;40.85
5877;BME280;2964;42.144;24.730;2023-02-21T06:26:09;144257.03;;;10.75;40.72
5877;BME280;2964;42.144;24.730;2023-02-21T06:28:37;144345.03;;;11.11;40.21
5877;BME280;2964;42.144;24.730;2023-02-21T06:31:04;144356.31;;;11.15;40.34
5877;BME280;2964;42.144;24.730;2023-02-21T06:33:31;144438.00;;;11.49;39.89
5877;BME280;2964;42.144;24.730;2023-02-21T06:36:03;144440.53;;;11.50;40.16
5877;BME280;2964;42.144;24.730;2023-02-21T06:38:29;144430.50;;;11.46;40.07
5877;BME280;2964;42.144;24.730;2023-02-21T06:40:56;144543.69;;;11.92;39.42
5877;BME280;2964;42.144;24.730;2023-02-21T06:43:23;144572.59;;;12.04;39.18
5877;BME280;2964;42.144;24.730;2023-02-21T06:45:51;144685.78;;;12.50;38.60
5877;BME280;2964;42.144;24.730;2023-02-21T06:48:19;144737.38;;;12.71;38.11
5877;BME280;2964;42.144;24.730;2023-02-21T06:50:45;144828.00;;;13.08;37.46
5877;BME280;2964;42.144;24.730;2023-02-21T06:53:12;144767.56;;;12.83;38.41
5877;BME280;2964;42.144;24.730;2023-02-21T06:55:39;144860.69;;;13.21;37.60
5877;BME280;2964;42.144;24.730;2023-02-21T06:58:06;144863.19;;;13.22;37.67
5877;BME280;2964;42.144;24.730;2023-02-21T07:00:33;144849.34;;;13.17;37.81
5877;BME280;2964;42.144;24.730;2023-02-21T07:03:01;144942.56;;;13.55;37.01
5877;BME280;2964;42.144;24.730;2023-02-21T07:05:28;144877.09;;;13.28;37.51
5877;BME280;2964;42.144;24.730;2023-02-21T07:07:58;144922.44;;;13.46;37.55
5877;BME280;2964;42.144;24.730;2023-02-21T07:10:25;144896.00;;;13.36;37.73
5877;BME280;2964;42.144;24.730;2023-02-21T07:12:52;144945.13;;;13.56;37.74
5877;BME280;2964;42.144;24.730;2023-02-21T07:15:19;145037.03;;;13.93;36.74
5877;BME280;2964;42.144;24.730;2023-02-21T07:17:45;145053.38;;;14.00;36.65
5877;BME280;2964;42.144;24.730;2023-02-21T07:20:13;145063.47;;;14.04;36.72
5877;BME280;2964;42.144;24.730;2023-02-21T07:22:40;145052.13;;;13.99;36.71
5877;BME280;2964;42.144;24.730;2023-02-21T07:25:07;145049.63;;;13.98;37.04
5877;BME280;2964;42.144;24.730;2023-02-21T07:27:33;145105.03;;;14.21;36.72
5877;BME280;2964;42.144;24.730;2023-02-21T07:30:00;145146.59;;;14.38;37.26
5877;BME280;2964;42.144;24.730;2023-02-21T07:32:27;145135.28;;;14.33;36.95
5877;BME280;2964;42.144;24.730;2023-02-21T07:34:54;145136.53;;;14.34;36.80
5877;BME280;2964;42.144;24.730;2023-02-21T07:37:22;145126.47;;;14.29;36.92
5877;BME280;2964;42.144;24.730;2023-02-21T07:39:49;145173.06;;;14.48;36.50
5877;BME280;2964;42.144;24.730;2023-02-21T07:42:15;145127.72;;;14.30;36.67
5877;BME280;2964;42.144;24.730;2023-02-21T07:44:42;145106.28;;;14.21;36.87
5877;BME280;2964;42.144;24.730;2023-02-21T07:47:09;145183.13;;;14.53;35.74
5877;BME280;2964;42.144;24.730;2023-02-21T07:49:37;145168.03;;;14.46;36.00
5877;BME280;2964;42.144;24.730;2023-02-21T07:52:04;145145.34;;;14.37;36.15
5877;BME280;2964;42.144;24.730;2023-02-21T07:54:32;145176.84;;;14.50;35.53
5877;BME280;2964;42.144;24.730;2023-02-21T07:56:59;145223.50;;;14.69;35.41
5877;BME280;2964;42.144;24.730;2023-02-21T07:59:25;145407.56;;;15.44;34.62
5877;BME280;2964;42.144;24.730;2023-02-21T08:01:52;145514.75;;;15.88;33.48
5877;BME280;2964;42.144;24.730;2023-02-21T08:04:19;145648.50;;;16.42;32.73
5877;BME280;2964;42.144;24.730;2023-02-21T08:06:47;145844.19;;;17.22;32.21
5877;BME280;2964;42.144;24.730;2023-02-21T08:09:14;146003.34;;;17.86;31.32
5877;BME280;2964;42.144;24.730;2023-02-21T08:11:42;146171.38;;;18.55;30.09
5877;BME280;2964;42.144;24.730;2023-02-21T08:14:09;146467.31;;;19.75;29.10
5877;BME280;2964;42.144;24.730;2023-02-21T08:16:36;146536.91;;;20.03;28.39
5877;BME280;2964;42.144;24.730;2023-02-21T08:19:02;146600.13;;;20.29;27.58
5877;BME280;2964;42.144;24.730;2023-02-21T08:21:30;146306.69;;;19.09;28.49
5877;BME280;2964;42.144;24.730;2023-02-21T08:23:56;146325.63;;;19.17;29.81
5877;BME280;2964;42.144;24.730;2023-02-21T08:26:23;146347.16;;;19.26;28.92
5877;BME280;2964;42.144;24.730;2023-02-21T08:28:51;146411.63;;;19.52;28.65
5877;BME280;2964;42.144;24.730;2023-02-21T08:31:18;146420.47;;;19.56;29.37
5877;BME280;2964;42.144;24.730;2023-02-21T08:33:44;146600.13;;;20.29;28.16
5877;BME280;2964;42.144;24.730;2023-02-21T08:36:11;146715.38;;;20.75;27.59
5877;BME280;2964;42.144;24.730;2023-02-21T08:38:38;146657.09;;;20.52;27.53
5877;BME280;2964;42.144;24.730;2023-02-21T08:41:05;146677.31;;;20.60;26.96
5877;BME280;2964;42.144;24.730;2023-02-21T08:43:32;146504.00;;;19.90;27.53
5877;BME280;2964;42.144;24.730;2023-02-21T08:46:00;146524.25;;;19.98;27.84
5877;BME280;2964;42.144;24.730;2023-02-21T08:48:27;146557.13;;;20.11;28.15
5877;BME280;2964;42.144;24.730;2023-02-21T08:50:53;146349.66;;;19.27;28.29
5877;BME280;2964;42.144;24.730;2023-02-21T08:53:20;146347.16;;;19.26;28.66
5877;BME280;2964;42.144;24.730;2023-02-21T08:55:47;146196.66;;;18.65;29.27
5877;BME280;2964;42.144;24.730;2023-02-21T08:58:13;146190.31;;;18.62;29.17
5877;BME280;2964;42.144;24.730;2023-02-21T09:00:40;146175.19;;;18.56;29.66
5877;BME280;2964;42.144;24.730;2023-02-21T09:03:08;146321.84;;;19.16;28.92
5877;BME280;2964;42.144;24.730;2023-02-21T09:05:35;146560.94;;;20.13;27.97
5877;BME280;2964;42.144;24.730;2023-02-21T09:08:01;146603.94;;;20.30;27.18
5877;BME280;2964;42.144;24.730;2023-02-21T09:10:31;146628.00;;;20.40;27.09
5877;BME280;2964;42.144;24.730;2023-02-21T09:12:58;146807.78;;;21.13;26.47
5877;BME280;2964;42.144;24.730;2023-02-21T09:15:25;146709.00;;;20.73;26.45
5877;BME280;2964;42.144;24.730;2023-02-21T09:17:52;146547.03;;;20.07;27.52
5877;BME280;2964;42.144;24.730;2023-02-21T09:20:22;146287.72;;;19.02;28.72
5877;BME280;2964;42.144;24.730;2023-02-21T09:22:50;146302.88;;;19.08;28.81
5877;BME280;2964;42.144;24.730;2023-02-21T09:25:20;146388.88;;;19.43;28.07
5877;BME280;2964;42.144;24.730;2023-02-21T09:27:48;146672.28;;;20.58;27.48
5877;BME280;2964;42.144;24.730;2023-02-21T09:30:17;146959.75;;;21.74;26.15
5877;BME280;2964;42.144;24.730;2023-02-21T09:32:44;147177.75;;;22.63;25.31
5877;BME280;2964;42.144;24.730;2023-02-21T09:35:12;147395.84;;;23.51;24.26
5877;BME280;2964;42.144;24.730;2023-02-21T09:37:41;147908.69;;;25.58;22.73
5877;BME280;2964;42.144;24.730;2023-02-21T09:40:14;148460.31;;;27.81;20.27
5877;BME280;2964;42.144;24.730;2023-02-21T09:42:43;148452.72;;;27.78;19.92
5877;BME280;2964;42.144;24.730;2023-02-21T09:45:13;148677.94;;;28.69;19.15
5877;BME280;2964;42.144;24.730;2023-02-21T09:47:42;148750.47;;;28.98;18.29
5877;BME280;2964;42.144;24.730;2023-02-21T09:50:13;147751.19;;;24.95;21.63
5877;BME280;2964;42.144;24.730;2023-02-21T09:52:41;148094.16;;;26.33;21.26
5877;BME280;2964;42.144;24.730;2023-02-21T09:55:13;148085.25;;;26.30;20.87
5877;BME280;2964;42.144;24.730;2023-02-21T09:57:46;148119.59;;;26.44;20.41
5877;BME280;2964;42.144;24.730;2023-02-21T10:00:17;148352.25;;;27.38;19.93
5877;BME280;2964;42.144;24.730;2023-02-21T10:02:53;148562.13;;;28.22;19.33
5877;BME280;2964;42.144;24.730;2023-02-21T10:05:30;148529.03;;;28.09;18.98
5877;BME280;2964;42.144;24.730;2023-02-21T10:08:06;148728.84;;;28.90;18.65
5877;BME280;2964;42.144;24.730;2023-02-21T10:10:39;148579.94;;;28.29;18.80
5877;BME280;2964;42.144;24.730;2023-02-21T10:13:18;148406.94;;;27.60;19.60
5877;BME280;2964;42.144;24.730;2023-02-21T10:15:49;148363.69;;;27.42;18.72
5877;BME280;2964;42.144;24.730;2023-02-21T10:18:27;147748.69;;;24.94;21.02
5877;BME280;2964;42.144;24.730;2023-02-21T10:20:57;147177.75;;;22.63;23.58
5877;BME280;2964;42.144;24.730;2023-02-21T10:23:31;146987.66;;;21.86;24.80
5877;BME280;2964;42.144;24.730;2023-02-21T10:26:03;146992.72;;;21.88;25.28
5877;BME280;2964;42.144;24.730;2023-02-21T10:28:33;146942.06;;;21.67;25.14
5877;BME280;2964;42.144;24.730;2023-02-21T10:31:03;146897.72;;;21.49;25.96
5877;BME280;2964;42.144;24.730;2023-02-21T10:33:33;146820.44;;;21.18;25.95
5877;BME280;2964;42.144;24.730;2023-02-21T10:36:01;146855.91;;;21.32;25.76
5877;BME280;2964;42.144;24.730;2023-02-21T10:38:29;146849.53;;;21.30;26.03
5877;BME280;2964;42.144;24.730;2023-02-21T10:40:58;146911.66;;;21.55;26.08
5877;BME280;2964;42.144;24.730;2023-02-21T10:43:30;146906.59;;;21.53;25.92
5877;BME280;2964;42.144;24.730;2023-02-21T10:46:01;146895.19;;;21.48;25.29
5877;BME280;2964;42.144;24.730;2023-02-21T10:48:34;146834.38;;;21.24;25.99
5877;BME280;2964;42.144;24.730;2023-02-21T10:51:06;146876.16;;;21.40;25.89
5877;BME280;2964;42.144;24.730;2023-02-21T10:53:36;146853.34;;;21.31;25.57
5877;BME280;2964;42.144;24.730;2023-02-21T10:56:09;146840.69;;;21.26;26.16
5877;BME280;2964;42.144;24.730;2023-02-21T10:58:44;146830.56;;;21.22;25.94
5877;BME280;2964;42.144;24.730;2023-02-21T11:01:12;146778.66;;;21.01;26.17
5877;BME280;2964;42.144;24.730;2023-02-21T11:03:44;146740.66;;;20.86;26.40
5877;BME280;2964;42.144;24.730;2023-02-21T11:06:21;146702.72;;;20.70;25.72
5877;BME280;2964;42.144;24.730;2023-02-21T11:08:50;146747.03;;;20.88;26.03
5877;BME280;2964;42.144;24.730;2023-02-21T11:11:31;146788.78;;;21.05;25.62
5877;BME280;2964;42.144;24.730;2023-02-21T11:14:11;146784.97;;;21.04;25.91
5877;BME280;2964;42.144;24.730;2023-02-21T11:16:44;146764.75;;;20.95;26.53
5877;BME280;2964;42.144;24.730;2023-02-21T11:19:12;146793.84;;;21.07;25.90
5877;BME280;2964;42.144;24.730;2023-02-21T11:21:40;146744.47;;;20.87;26.22
5877;BME280;2964;42.144;24.730;2023-02-21T11:24:11;146688.78;;;20.65;26.62
5877;BME280;2964;42.144;24.730;2023-02-21T11:26:44;146724.25;;;20.79;26.25
5877;BME280;2964;42.144;24.730;2023-02-21T11:29:14;146741.97;;;20.86;26.25
5877;BME280;2964;42.144;24.730;2023-02-21T11:31:43;146760.94;;;20.94;26.03
5877;BME280;2964;42.144;24.730;2023-02-21T11:34:13;146797.66;;;21.09;25.79
5877;BME280;2964;42.144;24.730;2023-02-21T11:36:41;146772.31;;;20.98;25.88
5877;BME280;2964;42.144;24.730;2023-02-21T11:39:17;146809.03;;;21.13;26.05
5877;BME280;2964;42.144;24.730;2023-02-21T11:41:45;146815.38;;;21.16;26.25
5877;BME280;2964;42.144;24.730;2023-02-21T11:44:28;146792.59;;;21.07;25.70
5877;BME280;2964;42.144;24.730;2023-02-21T11:47:12;146782.47;;;21.02;25.85
5877;BME280;2964;42.144;24.730;2023-02-21T11:49:47;146802.72;;;21.11;25.91
5877;BME280;2964;42.144;24.730;2023-02-21T11:52:19;146843.22;;;21.27;25.92
5877;BME280;2964;42.144;24.730;2023-02-21T11:54:49;146791.28;;;21.06;25.65
5877;BME280;2964;42.144;24.730;2023-02-21T11:57:21;146820.44;;;21.18;26.14
5877;BME280;2964;42.144;24.730;2023-02-21T11:59:55;146822.94;;;21.19;25.68
5877;BME280;2964;42.144;24.730;2023-02-21T12:02:48;146800.16;;;21.10;25.67
5877;BME280;2964;42.144;24.730;2023-02-21T12:05:31;146763.44;;;20.95;26.21
5877;BME280;2964;42.144;24.730;2023-02-21T12:14:11;146800.16;;;21.10;24.71
5877;BME280;2964;42.144;24.730;2023-02-21T12:16:51;146817.88;;;21.17;24.16
5877;BME280;2964;42.144;24.730;2023-02-21T12:19:44;146782.47;;;21.02;24.67
5877;BME280;2964;42.144;24.730;2023-02-21T12:22:23;146816.63;;;21.16;24.01
5877;BME280;2964;42.144;24.730;2023-02-21T12:25:05;146797.66;;;21.09;23.88
5877;BME280;2964;42.144;24.730;2023-02-21T12:27:45;146828.06;;;21.21;23.67
5877;BME280;2964;42.144;24.730;2023-02-21T12:30:26;146883.75;;;21.44;23.33
5877;BME280;2964;42.144;24.730;2023-02-21T12:33:08;146839.44;;;21.26;23.74
5877;BME280;2964;42.144;24.730;2023-02-21T12:36:03;146847.03;;;21.29;23.41
5877;BME280;2964;42.144;24.730;2023-02-21T12:38:46;146834.38;;;21.24;23.50
5877;BME280;2964;42.144;24.730;2023-02-21T12:41:27;146872.34;;;21.39;22.95
5877;BME280;2964;42.144;24.730;2023-02-21T12:44:03;146838.19;;;21.25;23.39
5877;BME280;2964;42.144;24.730;2023-02-21T12:46:39;146855.91;;;21.32;22.13
5877;BME280;2964;42.144;24.730;2023-02-21T12:49:13;146858.41;;;21.33;22.35
5877;BME280;2964;42.144;24.730;2023-02-21T12:51:45;146871.09;;;21.38;22.28
5877;BME280;2964;42.144;24.730;2023-02-21T12:54:15;146883.75;;;21.44;21.99
5877;BME280;2964;42.144;24.730;2023-02-21T12:56:46;146853.34;;;21.31;22.09
5877;BME280;2964;42.144;24.730;2023-02-21T12:59:23;146831.81;;;21.23;22.32
5877;BME280;2964;42.144;24.730;2023-02-21T13:01:57;146840.69;;;21.26;22.28
5877;BME280;2964;42.144;24.730;2023-02-21T13:04:34;146822.94;;;21.19;22.08
5877;BME280;2964;42.144;24.730;2023-02-21T13:07:08;146776.13;;;21.00;22.47
5877;BME280;2964;42.144;24.730;2023-02-21T13:09:54;146812.84;;;21.15;21.96
5877;BME280;2964;42.144;24.730;2023-02-21T13:12:25;146763.44;;;20.95;22.38
5877;BME280;2964;42.144;24.730;2023-02-21T13:14:59;146819.19;;;21.17;22.37
5877;BME280;2964;42.144;24.730;2023-02-21T13:17:26;146833.13;;;21.23;22.44
5877;BME280;2964;42.144;24.730;2023-02-21T13:19:58;146825.50;;;21.20;22.48
5877;BME280;2964;42.144;24.730;2023-02-21T13:26:10;146815.38;;;21.16;22.49
5877;BME280;2964;42.144;24.730;2023-02-21T13:28:41;146795.09;;;21.08;22.86
5877;BME280;2964;42.144;24.730;2023-02-21T13:31:19;146783.72;;;21.03;22.81
5877;BME280;2964;42.144;24.730;2023-02-21T13:33:49;146776.13;;;21.00;22.41
5877;BME280;2964;42.144;24.730;2023-02-21T13:36:24;146762.19;;;20.94;22.69
5877;BME280;2964;42.144;24.730;2023-02-21T13:39:00;146738.16;;;20.85;22.73
5877;BME280;2964;42.144;24.730;2023-02-21T13:41:32;146720.44;;;20.77;23.44
5877;BME280;2964;42.144;24.730;2023-02-21T13:44:05;146755.88;;;20.92;22.79
5877;BME280;2964;42.144;24.730;2023-02-21T13:47:00;146783.72;;;21.03;22.96
5877;BME280;2964;42.144;24.730;2023-02-21T13:49:39;146757.13;;;20.92;23.14
5877;BME280;2964;42.144;24.730;2023-02-21T13:55:26;146766.00;;;20.96;23.19
5877;BME280;2964;42.144;24.730;2023-02-21T14:04:49;146743.22;;;20.87;23.63
5877;BME280;2964;42.144;24.730;2023-02-21T14:07:55;146691.28;;;20.66;24.36